sensor_id;sensor_type;location;lat;lon;timestamp;P1;durP1;ratioP1;P2;durP2;ratioP2
42246;SDS011;27913;42.722;23.268;2022-10-23T00:01:13;21.88;;;11.23;;
42246;SDS011;27913;42.722;23.268;2022-10-23T00:03:40;25.17;;;11.15;;
42246;SDS011;27913;42.722;23.268;2022-10-23T00:06:06;20.95;;;10.48;;
42246;SDS011;27913;42.722;23.268;2022-10-23T00:08:32;18.95;;;10.00;;
42246;SDS011;27913;42.722;23.268;2022-10-23T00:10:57;19.95;;;9.60;;
42246;SDS011;27913;42.722;23.268;2022-10-23T00:13:23;23.92;;;9.93;;
42246;SDS011;27913;42.722;23.268;2022-10-23T00:15:48;24.73;;;10.73;;
42246;SDS011;27913;42.722;23.268;2022-10-23T00:18:14;22.85;;;11.02;;
42246;SDS011;27913;42.722;23.268;2022-10-23T00:20:40;22.85;;;9.18;;
42246;SDS011;27913;42.722;23.268;2022-10-23T00:23:05;21.55;;;9.70;;
42246;SDS011;27913;42.722;23.268;2022-10-23T00:25:31;21.13;;;8.95;;
42246;SDS011;27913;42.722;23.268;2022-10-23T00:27:57;18.73;;;9.68;;
42246;SDS011;27913;42.722;23.268;2022-10-23T00:30:23;17.33;;;9.07;;
42246;SDS011;27913;42.722;23.268;2022-10-23T00:32:48;36.17;;;15.52;;
42246;SDS011;27913;42.722;23.268;2022-10-23T00:35:14;21.77;;;9.82;;
42246;SDS011;27913;42.722;23.268;2022-10-23T00:37:39;18.98;;;8.60;;
42246;SDS011;27913;42.722;23.268;2022-10-23T00:40:05;28.25;;;9.48;;
42246;SDS011;27913;42.722;23.268;2022-10-23T00:42:31;21.13;;;9.35;;
42246;SDS011;27913;42.722;23.268;2022-10-23T00:45:11;21.33;;;8.80;;
42246;SDS011;27913;42.722;23.268;2022-10-23T00:47:44;18.88;;;9.52;;
42246;SDS011;27913;42.722;23.268;2022-10-23T00:50:09;23.50;;;10.18;;
42246;SDS011;27913;42.722;23.268;2022-10-23T00:52:36;17.92;;;9.15;;
42246;SDS011;27913;42.722;23.268;2022-10-23T00:55:06;20.48;;;10.23;;
42246;SDS011;27913;42.722;23.268;2022-10-23T00:57:32;17.35;;;7.95;;
42246;SDS011;27913;42.722;23.268;2022-10-23T00:59:57;18.95;;;8.30;;
42246;SDS011;27913;42.722;23.268;2022-10-23T01:04:58;18.08;;;8.48;;
42246;SDS011;27913;42.722;23.268;2022-10-23T01:07:27;18.25;;;9.35;;
42246;SDS011;27913;42.722;23.268;2022-10-23T01:10:01;19.52;;;10.55;;
42246;SDS011;27913;42.722;23.268;2022-10-23T01:17:39;29.15;;;13.38;;
42246;SDS011;27913;42.722;23.268;2022-10-23T01:26:18;26.27;;;12.95;;
42246;SDS011;27913;42.722;23.268;2022-10-23T01:28:48;39.50;;;15.52;;
42246;SDS011;27913;42.722;23.268;2022-10-23T01:31:22;29.90;;;14.18;;
42246;SDS011;27913;42.722;23.268;2022-10-23T01:33:56;35.47;;;15.15;;
42246;SDS011;27913;42.722;23.268;2022-10-23T01:36:28;28.73;;;14.77;;
42246;SDS011;27913;42.722;23.268;2022-10-23T01:39:00;29.60;;;13.35;;
42246;SDS011;27913;42.722;23.268;2022-10-23T01:41:36;28.25;;;12.63;;
42246;SDS011;27913;42.722;23.268;2022-10-23T01:44:08;34.53;;;15.10;;
42246;SDS011;27913;42.722;23.268;2022-10-23T01:46:38;27.27;;;13.23;;
42246;SDS011;27913;42.722;23.268;2022-10-23T01:49:05;34.35;;;13.23;;
42246;SDS011;27913;42.722;23.268;2022-10-23T01:51:34;34.22;;;13.27;;
42246;SDS011;27913;42.722;23.268;2022-10-23T01:54:03;31.98;;;12.23;;
42246;SDS011;27913;42.722;23.268;2022-10-23T01:56:34;26.88;;;12.25;;
42246;SDS011;27913;42.722;23.268;2022-10-23T01:59:02;25.10;;;12.73;;
42246;SDS011;27913;42.722;23.268;2022-10-23T02:01:34;27.63;;;12.18;;
42246;SDS011;27913;42.722;23.268;2022-10-23T02:04:04;27.87;;;12.60;;
42246;SDS011;27913;42.722;23.268;2022-10-23T02:06:34;26.67;;;13.15;;
42246;SDS011;27913;42.722;23.268;2022-10-23T02:09:00;26.52;;;12.20;;
42246;SDS011;27913;42.722;23.268;2022-10-23T02:11:25;27.85;;;12.65;;
42246;SDS011;27913;42.722;23.268;2022-10-23T02:21:54;32.03;;;13.82;;
42246;SDS011;27913;42.722;23.268;2022-10-23T02:24:32;26.48;;;13.48;;
42246;SDS011;27913;42.722;23.268;2022-10-23T02:27:19;34.15;;;13.63;;
42246;SDS011;27913;42.722;23.268;2022-10-23T02:29:52;25.42;;;12.20;;
42246;SDS011;27913;42.722;23.268;2022-10-23T02:32:21;27.88;;;12.73;;
42246;SDS011;27913;42.722;23.268;2022-10-23T02:34:51;29.48;;;13.07;;
42246;SDS011;27913;42.722;23.268;2022-10-23T02:37:17;24.02;;;12.15;;
42246;SDS011;27913;42.722;23.268;2022-10-23T02:39:43;28.20;;;12.35;;
42246;SDS011;27913;42.722;23.268;2022-10-23T02:45:37;23.20;;;12.00;;
42246;SDS011;27913;42.722;23.268;2022-10-23T02:47:59;22.88;;;11.80;;
42246;SDS011;27913;42.722;23.268;2022-10-23T02:50:49;24.45;;;10.82;;
42246;SDS011;27913;42.722;23.268;2022-10-23T02:56:08;22.80;;;10.30;;
42246;SDS011;27913;42.722;23.268;2022-10-23T02:58:44;28.38;;;12.38;;
42246;SDS011;27913;42.722;23.268;2022-10-23T03:01:19;27.00;;;14.40;;
42246;SDS011;27913;42.722;23.268;2022-10-23T03:03:51;29.67;;;13.88;;
42246;SDS011;27913;42.722;23.268;2022-10-23T03:06:19;31.65;;;14.38;;
42246;SDS011;27913;42.722;23.268;2022-10-23T03:11:21;25.17;;;11.25;;
42246;SDS011;27913;42.722;23.268;2022-10-23T03:13:47;25.40;;;11.65;;
42246;SDS011;27913;42.722;23.268;2022-10-23T03:16:12;23.48;;;9.77;;
42246;SDS011;27913;42.722;23.268;2022-10-23T03:18:38;19.02;;;9.30;;
42246;SDS011;27913;42.722;23.268;2022-10-23T03:21:03;23.63;;;9.77;;
42246;SDS011;27913;42.722;23.268;2022-10-23T03:23:28;18.08;;;8.75;;
42246;SDS011;27913;42.722;23.268;2022-10-23T03:25:54;16.90;;;8.10;;
42246;SDS011;27913;42.722;23.268;2022-10-23T03:28:20;17.33;;;8.60;;
42246;SDS011;27913;42.722;23.268;2022-10-23T03:30:47;23.67;;;9.07;;
42246;SDS011;27913;42.722;23.268;2022-10-23T03:33:13;18.70;;;8.98;;
42246;SDS011;27913;42.722;23.268;2022-10-23T03:35:38;20.73;;;8.25;;
42246;SDS011;27913;42.722;23.268;2022-10-23T03:38:04;19.42;;;8.50;;
42246;SDS011;27913;42.722;23.268;2022-10-23T03:40:29;15.95;;;8.30;;
42246;SDS011;27913;42.722;23.268;2022-10-23T03:42:54;16.38;;;8.43;;
42246;SDS011;27913;42.722;23.268;2022-10-23T03:45:20;18.52;;;8.10;;
42246;SDS011;27913;42.722;23.268;2022-10-23T03:47:46;17.73;;;8.52;;
42246;SDS011;27913;42.722;23.268;2022-10-23T03:50:12;18.13;;;7.30;;
42246;SDS011;27913;42.722;23.268;2022-10-23T03:52:38;18.30;;;7.20;;
42246;SDS011;27913;42.722;23.268;2022-10-23T03:55:04;18.00;;;7.22;;
42246;SDS011;27913;42.722;23.268;2022-10-23T03:57:30;22.67;;;7.68;;
42246;SDS011;27913;42.722;23.268;2022-10-23T03:59:56;16.50;;;7.53;;
42246;SDS011;27913;42.722;23.268;2022-10-23T04:02:22;15.40;;;6.10;;
42246;SDS011;27913;42.722;23.268;2022-10-23T04:04:47;14.10;;;5.93;;
42246;SDS011;27913;42.722;23.268;2022-10-23T04:07:13;13.30;;;4.82;;
42246;SDS011;27913;42.722;23.268;2022-10-23T04:09:39;17.60;;;5.28;;
42246;SDS011;27913;42.722;23.268;2022-10-23T04:12:04;15.70;;;5.03;;
42246;SDS011;27913;42.722;23.268;2022-10-23T04:14:30;9.63;;;4.15;;
42246;SDS011;27913;42.722;23.268;2022-10-23T04:16:56;12.60;;;4.28;;
42246;SDS011;27913;42.722;23.268;2022-10-23T04:19:21;11.60;;;4.20;;
42246;SDS011;27913;42.722;23.268;2022-10-23T04:21:47;11.68;;;3.95;;
42246;SDS011;27913;42.722;23.268;2022-10-23T04:24:12;14.52;;;4.40;;
42246;SDS011;27913;42.722;23.268;2022-10-23T04:26:38;14.15;;;3.72;;
42246;SDS011;27913;42.722;23.268;2022-10-23T04:29:03;11.43;;;3.83;;
42246;SDS011;27913;42.722;23.268;2022-10-23T04:31:29;9.02;;;3.33;;
42246;SDS011;27913;42.722;23.268;2022-10-23T04:33:55;10.68;;;4.05;;
42246;SDS011;27913;42.722;23.268;2022-10-23T04:36:20;13.38;;;3.95;;
42246;SDS011;27913;42.722;23.268;2022-10-23T04:38:46;9.15;;;3.50;;
42246;SDS011;27913;42.722;23.268;2022-10-23T04:41:12;8.00;;;3.30;;
42246;SDS011;27913;42.722;23.268;2022-10-23T04:43:38;8.40;;;3.40;;
42246;SDS011;27913;42.722;23.268;2022-10-23T04:46:03;7.90;;;3.60;;
42246;SDS011;27913;42.722;23.268;2022-10-23T04:48:29;10.95;;;3.38;;
42246;SDS011;27913;42.722;23.268;2022-10-23T04:50:55;9.43;;;3.70;;
42246;SDS011;27913;42.722;23.268;2022-10-23T04:53:25;10.13;;;4.10;;
42246;SDS011;27913;42.722;23.268;2022-10-23T04:55:52;12.85;;;3.58;;
42246;SDS011;27913;42.722;23.268;2022-10-23T04:58:20;9.85;;;3.10;;
42246;SDS011;27913;42.722;23.268;2022-10-23T05:00:46;10.40;;;2.83;;
42246;SDS011;27913;42.722;23.268;2022-10-23T05:03:12;9.80;;;2.97;;
42246;SDS011;27913;42.722;23.268;2022-10-23T05:05:37;7.82;;;3.05;;
42246;SDS011;27913;42.722;23.268;2022-10-23T05:08:04;9.98;;;3.50;;
42246;SDS011;27913;42.722;23.268;2022-10-23T05:10:29;12.80;;;3.25;;
42246;SDS011;27913;42.722;23.268;2022-10-23T05:12:55;9.65;;;3.10;;
42246;SDS011;27913;42.722;23.268;2022-10-23T05:15:20;11.95;;;3.30;;
42246;SDS011;27913;42.722;23.268;2022-10-23T05:17:47;8.20;;;3.33;;
42246;SDS011;27913;42.722;23.268;2022-10-23T05:20:19;8.57;;;3.00;;
42246;SDS011;27913;42.722;23.268;2022-10-23T05:22:49;11.52;;;3.83;;
42246;SDS011;27913;42.722;23.268;2022-10-23T05:25:18;8.70;;;3.30;;
42246;SDS011;27913;42.722;23.268;2022-10-23T05:27:43;8.52;;;3.22;;
42246;SDS011;27913;42.722;23.268;2022-10-23T05:30:09;12.82;;;3.22;;
42246;SDS011;27913;42.722;23.268;2022-10-23T05:32:35;7.75;;;3.20;;
42246;SDS011;27913;42.722;23.268;2022-10-23T05:35:03;7.00;;;2.85;;
42246;SDS011;27913;42.722;23.268;2022-10-23T05:37:32;11.35;;;3.10;;
42246;SDS011;27913;42.722;23.268;2022-10-23T05:39:57;8.77;;;3.63;;
42246;SDS011;27913;42.722;23.268;2022-10-23T05:42:23;10.50;;;3.30;;
42246;SDS011;27913;42.722;23.268;2022-10-23T05:44:49;8.77;;;3.17;;
42246;SDS011;27913;42.722;23.268;2022-10-23T05:47:14;10.23;;;3.90;;
42246;SDS011;27913;42.722;23.268;2022-10-23T05:49:39;10.45;;;4.07;;
42246;SDS011;27913;42.722;23.268;2022-10-23T05:52:05;10.25;;;2.83;;
42246;SDS011;27913;42.722;23.268;2022-10-23T05:54:30;9.00;;;3.00;;
42246;SDS011;27913;42.722;23.268;2022-10-23T05:56:56;8.00;;;2.97;;
42246;SDS011;27913;42.722;23.268;2022-10-23T05:59:22;8.60;;;3.47;;
42246;SDS011;27913;42.722;23.268;2022-10-23T06:01:47;7.18;;;3.25;;
42246;SDS011;27913;42.722;23.268;2022-10-23T06:04:13;11.38;;;3.50;;
42246;SDS011;27913;42.722;23.268;2022-10-23T06:06:38;12.32;;;3.53;;
42246;SDS011;27913;42.722;23.268;2022-10-23T06:09:04;10.95;;;3.55;;
42246;SDS011;27913;42.722;23.268;2022-10-23T06:11:29;8.32;;;3.97;;
42246;SDS011;27913;42.722;23.268;2022-10-23T06:13:55;9.60;;;4.07;;
42246;SDS011;27913;42.722;23.268;2022-10-23T06:16:21;8.20;;;2.92;;
42246;SDS011;27913;42.722;23.268;2022-10-23T06:21:17;8.60;;;3.30;;
42246;SDS011;27913;42.722;23.268;2022-10-23T06:23:43;9.73;;;3.42;;
42246;SDS011;27913;42.722;23.268;2022-10-23T06:26:10;7.25;;;3.25;;
42246;SDS011;27913;42.722;23.268;2022-10-23T06:28:37;9.05;;;3.13;;
42246;SDS011;27913;42.722;23.268;2022-10-23T06:31:04;10.60;;;3.70;;
42246;SDS011;27913;42.722;23.268;2022-10-23T06:33:30;14.25;;;3.20;;
42246;SDS011;27913;42.722;23.268;2022-10-23T06:35:55;8.73;;;3.50;;
42246;SDS011;27913;42.722;23.268;2022-10-23T06:38:21;8.88;;;3.17;;
42246;SDS011;27913;42.722;23.268;2022-10-23T06:40:51;7.13;;;3.30;;
42246;SDS011;27913;42.722;23.268;2022-10-23T06:43:17;10.30;;;3.53;;
42246;SDS011;27913;42.722;23.268;2022-10-23T06:45:42;8.45;;;3.60;;
42246;SDS011;27913;42.722;23.268;2022-10-23T06:48:08;10.25;;;3.70;;
42246;SDS011;27913;42.722;23.268;2022-10-23T06:50:35;9.07;;;3.38;;
42246;SDS011;27913;42.722;23.268;2022-10-23T06:53:01;11.57;;;3.42;;
42246;SDS011;27913;42.722;23.268;2022-10-23T06:55:28;8.45;;;4.00;;
42246;SDS011;27913;42.722;23.268;2022-10-23T06:57:54;10.50;;;3.28;;
42246;SDS011;27913;42.722;23.268;2022-10-23T07:00:19;6.78;;;3.08;;
42246;SDS011;27913;42.722;23.268;2022-10-23T07:02:45;8.40;;;3.30;;
42246;SDS011;27913;42.722;23.268;2022-10-23T07:05:11;5.50;;;2.67;;
42246;SDS011;27913;42.722;23.268;2022-10-23T07:07:37;8.20;;;2.85;;
42246;SDS011;27913;42.722;23.268;2022-10-23T07:10:02;12.77;;;3.90;;
42246;SDS011;27913;42.722;23.268;2022-10-23T07:12:28;11.25;;;4.60;;
42246;SDS011;27913;42.722;23.268;2022-10-23T07:14:53;8.95;;;3.80;;
42246;SDS011;27913;42.722;23.268;2022-10-23T07:17:19;10.77;;;3.92;;
42246;SDS011;27913;42.722;23.268;2022-10-23T07:19:45;9.25;;;3.30;;
42246;SDS011;27913;42.722;23.268;2022-10-23T07:22:11;7.40;;;3.40;;
42246;SDS011;27913;42.722;23.268;2022-10-23T07:24:37;10.00;;;2.90;;
42246;SDS011;27913;42.722;23.268;2022-10-23T07:27:04;10.85;;;4.07;;
42246;SDS011;27913;42.722;23.268;2022-10-23T07:29:30;12.60;;;4.10;;
42246;SDS011;27913;42.722;23.268;2022-10-23T07:31:56;8.77;;;4.03;;
42246;SDS011;27913;42.722;23.268;2022-10-23T07:34:22;10.60;;;4.53;;
42246;SDS011;27913;42.722;23.268;2022-10-23T07:36:48;7.32;;;3.30;;
42246;SDS011;27913;42.722;23.268;2022-10-23T07:39:14;9.82;;;3.53;;
42246;SDS011;27913;42.722;23.268;2022-10-23T07:41:39;9.75;;;3.33;;
42246;SDS011;27913;42.722;23.268;2022-10-23T07:44:05;13.98;;;3.45;;
42246;SDS011;27913;42.722;23.268;2022-10-23T07:46:30;9.55;;;3.28;;
42246;SDS011;27913;42.722;23.268;2022-10-23T07:48:56;10.88;;;3.10;;
42246;SDS011;27913;42.722;23.268;2022-10-23T07:51:21;6.20;;;2.90;;
42246;SDS011;27913;42.722;23.268;2022-10-23T07:53:47;6.43;;;2.45;;
42246;SDS011;27913;42.722;23.268;2022-10-23T07:56:24;10.88;;;3.50;;
42246;SDS011;27913;42.722;23.268;2022-10-23T07:58:54;11.60;;;3.20;;
42246;SDS011;27913;42.722;23.268;2022-10-23T08:01:28;7.28;;;2.95;;
42246;SDS011;27913;42.722;23.268;2022-10-23T08:03:56;6.57;;;2.60;;
42246;SDS011;27913;42.722;23.268;2022-10-23T08:06:22;9.80;;;3.17;;
42246;SDS011;27913;42.722;23.268;2022-10-23T08:08:47;8.77;;;3.40;;
42246;SDS011;27913;42.722;23.268;2022-10-23T08:11:13;9.80;;;3.63;;
42246;SDS011;27913;42.722;23.268;2022-10-23T08:13:41;11.15;;;4.20;;
42246;SDS011;27913;42.722;23.268;2022-10-23T08:16:07;9.70;;;3.47;;
42246;SDS011;27913;42.722;23.268;2022-10-23T08:18:33;8.00;;;3.15;;
42246;SDS011;27913;42.722;23.268;2022-10-23T08:20:59;6.53;;;3.00;;
42246;SDS011;27913;42.722;23.268;2022-10-23T08:23:26;5.18;;;2.53;;
42246;SDS011;27913;42.722;23.268;2022-10-23T08:25:56;7.55;;;3.13;;
42246;SDS011;27913;42.722;23.268;2022-10-23T08:28:23;7.28;;;2.75;;
42246;SDS011;27913;42.722;23.268;2022-10-23T08:30:48;6.82;;;2.65;;
42246;SDS011;27913;42.722;23.268;2022-10-23T08:33:14;9.07;;;3.60;;
42246;SDS011;27913;42.722;23.268;2022-10-23T08:35:39;8.02;;;3.90;;
42246;SDS011;27913;42.722;23.268;2022-10-23T08:38:05;10.50;;;2.60;;
42246;SDS011;27913;42.722;23.268;2022-10-23T08:40:31;7.80;;;2.80;;
42246;SDS011;27913;42.722;23.268;2022-10-23T08:45:55;6.60;;;2.47;;
42246;SDS011;27913;42.722;23.268;2022-10-23T08:48:41;5.82;;;1.30;;
42246;SDS011;27913;42.722;23.268;2022-10-23T08:51:18;6.18;;;2.25;;
42246;SDS011;27913;42.722;23.268;2022-10-23T08:53:57;5.30;;;2.20;;
42246;SDS011;27913;42.722;23.268;2022-10-23T08:56:53;6.60;;;3.03;;
42246;SDS011;27913;42.722;23.268;2022-10-23T09:01:59;5.68;;;2.40;;
42246;SDS011;27913;42.722;23.268;2022-10-23T09:04:28;8.13;;;2.40;;
42246;SDS011;27913;42.722;23.268;2022-10-23T09:09:33;5.82;;;2.70;;
42246;SDS011;27913;42.722;23.268;2022-10-23T09:12:13;6.30;;;2.13;;
42246;SDS011;27913;42.722;23.268;2022-10-23T09:19:48;8.07;;;2.60;;
42246;SDS011;27913;42.722;23.268;2022-10-23T09:22:18;5.47;;;2.03;;
42246;SDS011;27913;42.722;23.268;2022-10-23T09:24:43;7.05;;;2.80;;
42246;SDS011;27913;42.722;23.268;2022-10-23T09:27:13;5.15;;;1.80;;
42246;SDS011;27913;42.722;23.268;2022-10-23T09:29:46;4.38;;;2.20;;
42246;SDS011;27913;42.722;23.268;2022-10-23T09:32:13;4.32;;;1.77;;
42246;SDS011;27913;42.722;23.268;2022-10-23T09:34:48;4.72;;;2.05;;
42246;SDS011;27913;42.722;23.268;2022-10-23T09:42:57;4.65;;;2.08;;
42246;SDS011;27913;42.722;23.268;2022-10-23T09:45:37;6.18;;;2.10;;
42246;SDS011;27913;42.722;23.268;2022-10-23T09:48:10;5.43;;;1.70;;
42246;SDS011;27913;42.722;23.268;2022-10-23T09:50:49;5.97;;;1.40;;
42246;SDS011;27913;42.722;23.268;2022-10-23T09:56:05;4.22;;;1.70;;
42246;SDS011;27913;42.722;23.268;2022-10-23T10:01:49;4.05;;;1.48;;
42246;SDS011;27913;42.722;23.268;2022-10-23T10:04:17;6.10;;;1.80;;
42246;SDS011;27913;42.722;23.268;2022-10-23T10:06:42;4.03;;;1.85;;
42246;SDS011;27913;42.722;23.268;2022-10-23T10:09:12;4.35;;;1.60;;
42246;SDS011;27913;42.722;23.268;2022-10-23T10:11:45;4.22;;;1.73;;
42246;SDS011;27913;42.722;23.268;2022-10-23T10:22:38;4.47;;;1.60;;
42246;SDS011;27913;42.722;23.268;2022-10-23T10:33:58;5.95;;;1.60;;
42246;SDS011;27913;42.722;23.268;2022-10-23T10:36:40;3.38;;;1.45;;
42246;SDS011;27913;42.722;23.268;2022-10-23T10:44:52;1.58;;;0.70;;
42246;SDS011;27913;42.722;23.268;2022-10-23T10:50:51;3.75;;;1.23;;
42246;SDS011;27913;42.722;23.268;2022-10-23T10:56:10;3.83;;;1.17;;
42246;SDS011;27913;42.722;23.268;2022-10-23T10:58:40;6.82;;;1.27;;
42246;SDS011;27913;42.722;23.268;2022-10-23T11:01:12;3.17;;;1.30;;
42246;SDS011;27913;42.722;23.268;2022-10-23T11:03:51;3.40;;;1.17;;
42246;SDS011;27913;42.722;23.268;2022-10-23T11:06:22;2.63;;;1.15;;
42246;SDS011;27913;42.722;23.268;2022-10-23T11:08:51;2.50;;;1.15;;
42246;SDS011;27913;42.722;23.268;2022-10-23T11:11:35;2.38;;;1.23;;
42246;SDS011;27913;42.722;23.268;2022-10-23T11:14:02;2.45;;;0.90;;
42246;SDS011;27913;42.722;23.268;2022-10-23T11:16:29;4.82;;;1.42;;
42246;SDS011;27913;42.722;23.268;2022-10-23T11:27:12;2.70;;;1.05;;
42246;SDS011;27913;42.722;23.268;2022-10-23T11:37:31;4.05;;;1.00;;
42246;SDS011;27913;42.722;23.268;2022-10-23T11:44:57;1.70;;;0.75;;
42246;SDS011;27913;42.722;23.268;2022-10-23T11:47:33;6.57;;;1.15;;
42246;SDS011;27913;42.722;23.268;2022-10-23T11:52:33;7.95;;;1.48;;
42246;SDS011;27913;42.722;23.268;2022-10-23T11:55:04;6.20;;;1.20;;
42246;SDS011;27913;42.722;23.268;2022-10-23T11:57:42;2.95;;;1.08;;
42246;SDS011;27913;42.722;23.268;2022-10-23T12:00:19;2.40;;;0.70;;
42246;SDS011;27913;42.722;23.268;2022-10-23T12:02:49;1.88;;;1.00;;
42246;SDS011;27913;42.722;23.268;2022-10-23T12:05:31;1.70;;;0.70;;
42246;SDS011;27913;42.722;23.268;2022-10-23T12:08:05;2.33;;;0.98;;
42246;SDS011;27913;42.722;23.268;2022-10-23T12:10:42;6.18;;;1.90;;
42246;SDS011;27913;42.722;23.268;2022-10-23T12:16:06;2.00;;;0.88;;
42246;SDS011;27913;42.722;23.268;2022-10-23T12:18:32;1.70;;;0.90;;
42246;SDS011;27913;42.722;23.268;2022-10-23T12:21:12;0.82;;;0.32;;
42246;SDS011;27913;42.722;23.268;2022-10-23T12:24:01;1.38;;;0.50;;
42246;SDS011;27913;42.722;23.268;2022-10-23T12:34:55;1.23;;;0.60;;
42246;SDS011;27913;42.722;23.268;2022-10-23T12:37:44;1.27;;;0.70;;
42246;SDS011;27913;42.722;23.268;2022-10-23T12:40:13;1.10;;;0.40;;
42246;SDS011;27913;42.722;23.268;2022-10-23T12:42:48;4.07;;;0.80;;
42246;SDS011;27913;42.722;23.268;2022-10-23T12:45:28;1.83;;;0.85;;
42246;SDS011;27913;42.722;23.268;2022-10-23T12:47:56;2.00;;;0.70;;
42246;SDS011;27913;42.722;23.268;2022-10-23T12:50:23;3.42;;;0.88;;
42246;SDS011;27913;42.722;23.268;2022-10-23T12:52:52;1.30;;;0.75;;
42246;SDS011;27913;42.722;23.268;2022-10-23T12:55:22;1.65;;;0.57;;
42246;SDS011;27913;42.722;23.268;2022-10-23T12:57:49;2.00;;;0.70;;
42246;SDS011;27913;42.722;23.268;2022-10-23T13:00:20;2.25;;;0.90;;
42246;SDS011;27913;42.722;23.268;2022-10-23T13:02:57;1.42;;;0.65;;
42246;SDS011;27913;42.722;23.268;2022-10-23T13:05:28;2.40;;;0.47;;
42246;SDS011;27913;42.722;23.268;2022-10-23T13:07:54;4.07;;;0.77;;
42246;SDS011;27913;42.722;23.268;2022-10-23T13:10:23;1.77;;;0.70;;
42246;SDS011;27913;42.722;23.268;2022-10-23T13:12:53;1.38;;;0.68;;
42246;SDS011;27913;42.722;23.268;2022-10-23T13:15:22;2.17;;;0.70;;
42246;SDS011;27913;42.722;23.268;2022-10-23T13:25:51;3.30;;;0.85;;
42246;SDS011;27913;42.722;23.268;2022-10-23T13:28:21;1.70;;;0.68;;
42246;SDS011;27913;42.722;23.268;2022-10-23T13:31:06;1.38;;;0.73;;
42246;SDS011;27913;42.722;23.268;2022-10-23T13:33:41;1.48;;;0.70;;
42246;SDS011;27913;42.722;23.268;2022-10-23T13:38:38;2.25;;;0.90;;
42246;SDS011;27913;42.722;23.268;2022-10-23T13:41:11;2.50;;;0.60;;
42246;SDS011;27913;42.722;23.268;2022-10-23T13:43:40;3.25;;;1.05;;
42246;SDS011;27913;42.722;23.268;2022-10-23T13:46:11;3.45;;;0.68;;
42246;SDS011;27913;42.722;23.268;2022-10-23T13:48:38;8.77;;;1.02;;
42246;SDS011;27913;42.722;23.268;2022-10-23T13:51:11;5.00;;;1.52;;
42246;SDS011;27913;42.722;23.268;2022-10-23T13:53:47;3.33;;;1.15;;
42246;SDS011;27913;42.722;23.268;2022-10-23T13:56:14;5.93;;;2.42;;
42246;SDS011;27913;42.722;23.268;2022-10-23T13:58:41;7.57;;;1.35;;
42246;SDS011;27913;42.722;23.268;2022-10-23T14:01:26;1.13;;;0.60;;
42246;SDS011;27913;42.722;23.268;2022-10-23T14:03:54;3.95;;;1.40;;
42246;SDS011;27913;42.722;23.268;2022-10-23T14:06:21;3.22;;;1.30;;
42246;SDS011;27913;42.722;23.268;2022-10-23T14:08:46;3.08;;;1.30;;
42246;SDS011;27913;42.722;23.268;2022-10-23T14:11:13;2.25;;;1.10;;
42246;SDS011;27913;42.722;23.268;2022-10-23T14:13:40;2.38;;;1.02;;
42246;SDS011;27913;42.722;23.268;2022-10-23T14:16:05;2.17;;;0.95;;
42246;SDS011;27913;42.722;23.268;2022-10-23T14:18:34;2.25;;;0.85;;
42246;SDS011;27913;42.722;23.268;2022-10-23T14:21:01;1.65;;;0.82;;
42246;SDS011;27913;42.722;23.268;2022-10-23T14:23:28;2.92;;;1.23;;
42246;SDS011;27913;42.722;23.268;2022-10-23T14:25:53;3.33;;;1.20;;
42246;SDS011;27913;42.722;23.268;2022-10-23T14:28:25;3.67;;;1.30;;
42246;SDS011;27913;42.722;23.268;2022-10-23T14:30:50;5.93;;;1.33;;
42246;SDS011;27913;42.722;23.268;2022-10-23T14:33:15;4.32;;;1.10;;
42246;SDS011;27913;42.722;23.268;2022-10-23T14:35:41;3.58;;;1.25;;
42246;SDS011;27913;42.722;23.268;2022-10-23T14:38:07;3.03;;;1.38;;
42246;SDS011;27913;42.722;23.268;2022-10-23T14:40:36;1.90;;;0.80;;
42246;SDS011;27913;42.722;23.268;2022-10-23T14:43:02;3.28;;;1.10;;
42246;SDS011;27913;42.722;23.268;2022-10-23T14:45:28;3.00;;;1.23;;
42246;SDS011;27913;42.722;23.268;2022-10-23T14:47:54;2.92;;;1.40;;
42246;SDS011;27913;42.722;23.268;2022-10-23T14:50:19;2.08;;;0.70;;
42246;SDS011;27913;42.722;23.268;2022-10-23T14:52:45;12.07;;;1.20;;
42246;SDS011;27913;42.722;23.268;2022-10-23T14:55:11;5.88;;;1.15;;
42246;SDS011;27913;42.722;23.268;2022-10-23T14:57:36;3.97;;;1.13;;
42246;SDS011;27913;42.722;23.268;2022-10-23T15:00:03;3.10;;;1.13;;
42246;SDS011;27913;42.722;23.268;2022-10-23T15:02:30;2.95;;;1.27;;
42246;SDS011;27913;42.722;23.268;2022-10-23T15:04:55;7.68;;;1.30;;
42246;SDS011;27913;42.722;23.268;2022-10-23T15:07:21;3.92;;;1.45;;
42246;SDS011;27913;42.722;23.268;2022-10-23T15:09:46;6.22;;;1.60;;
42246;SDS011;27913;42.722;23.268;2022-10-23T15:12:12;4.45;;;1.42;;
42246;SDS011;27913;42.722;23.268;2022-10-23T15:14:38;3.97;;;1.30;;
42246;SDS011;27913;42.722;23.268;2022-10-23T15:17:03;6.25;;;1.35;;
42246;SDS011;27913;42.722;23.268;2022-10-23T15:19:29;3.53;;;0.90;;
42246;SDS011;27913;42.722;23.268;2022-10-23T15:21:54;4.35;;;1.40;;
42246;SDS011;27913;42.722;23.268;2022-10-23T15:24:20;3.95;;;1.30;;
42246;SDS011;27913;42.722;23.268;2022-10-23T15:26:46;3.30;;;1.10;;
42246;SDS011;27913;42.722;23.268;2022-10-23T15:29:12;3.10;;;1.00;;
42246;SDS011;27913;42.722;23.268;2022-10-23T15:31:39;3.08;;;1.20;;
42246;SDS011;27913;42.722;23.268;2022-10-23T15:34:07;3.17;;;1.30;;
42246;SDS011;27913;42.722;23.268;2022-10-23T15:36:34;2.38;;;1.00;;
42246;SDS011;27913;42.722;23.268;2022-10-23T15:39:00;2.38;;;1.20;;
42246;SDS011;27913;42.722;23.268;2022-10-23T15:41:29;5.30;;;1.00;;
42246;SDS011;27913;42.722;23.268;2022-10-23T15:43:59;3.03;;;1.00;;
42246;SDS011;27913;42.722;23.268;2022-10-23T15:46:25;2.97;;;0.82;;
42246;SDS011;27913;42.722;23.268;2022-10-23T15:48:51;3.58;;;1.20;;
42246;SDS011;27913;42.722;23.268;2022-10-23T15:51:17;3.63;;;1.15;;
42246;SDS011;27913;42.722;23.268;2022-10-23T15:53:43;4.13;;;1.45;;
42246;SDS011;27913;42.722;23.268;2022-10-23T15:56:08;4.05;;;1.45;;
42246;SDS011;27913;42.722;23.268;2022-10-23T15:58:34;3.75;;;1.20;;
42246;SDS011;27913;42.722;23.268;2022-10-23T16:01:03;3.10;;;1.30;;
42246;SDS011;27913;42.722;23.268;2022-10-23T16:03:37;3.75;;;1.40;;
42246;SDS011;27913;42.722;23.268;2022-10-23T16:06:04;2.88;;;1.25;;
42246;SDS011;27913;42.722;23.268;2022-10-23T16:11:00;4.18;;;1.25;;
42246;SDS011;27913;42.722;23.268;2022-10-23T16:13:25;2.78;;;1.25;;
42246;SDS011;27913;42.722;23.268;2022-10-23T16:15:51;5.15;;;1.38;;
42246;SDS011;27913;42.722;23.268;2022-10-23T16:18:18;3.65;;;1.13;;
42246;SDS011;27913;42.722;23.268;2022-10-23T16:20:44;3.90;;;0.98;;
42246;SDS011;27913;42.722;23.268;2022-10-23T16:23:10;6.82;;;1.50;;
42246;SDS011;27913;42.722;23.268;2022-10-23T16:25:36;3.38;;;1.20;;
42246;SDS011;27913;42.722;23.268;2022-10-23T16:28:02;4.25;;;1.42;;
42246;SDS011;27913;42.722;23.268;2022-10-23T16:30:27;2.38;;;0.90;;
42246;SDS011;27913;42.722;23.268;2022-10-23T16:32:53;2.85;;;1.13;;
42246;SDS011;27913;42.722;23.268;2022-10-23T16:35:19;3.17;;;1.17;;
42246;SDS011;27913;42.722;23.268;2022-10-23T16:37:45;3.35;;;1.20;;
42246;SDS011;27913;42.722;23.268;2022-10-23T16:40:11;3.58;;;1.60;;
42246;SDS011;27913;42.722;23.268;2022-10-23T16:42:37;5.15;;;1.60;;
42246;SDS011;27913;42.722;23.268;2022-10-23T16:45:04;4.03;;;1.30;;
42246;SDS011;27913;42.722;23.268;2022-10-23T16:47:30;2.78;;;1.05;;
42246;SDS011;27913;42.722;23.268;2022-10-23T16:49:56;3.05;;;1.30;;